HAZ1605 ZUUU-ZPPP
Flight info
| Callsign | HAZ1605 |
|---|---|
| Flight time | 1h 2m |
| Altitude | 38100 |
| Route | LUVEN9W LUVEN G212 NIXAS NIXAS1A |
| Aircraft | E75L/M-SDE3GILORVW/S |
Departure
| Time | 2026-05-04 07:50 |
|---|---|
| Airport | Chengdu Shuangliu International Airport (ZUUU) |
Arrival
| Time | 2026-05-04 08:53 |
|---|---|
| Airport | Kunming Changshui International Airport (ZPPP) |
| Time | Latitude | Longitude | Altitude | Speed | Heading |
|---|---|---|---|---|---|
| 2026-05-04 07:34 | 30.57186 | 103.95186 | 1688 ft | 0 kts | 111° |
| 2026-05-04 07:40 | 30.57189 | 103.95174 | 1688 ft | 2 kts | 97° |
| 2026-05-04 07:41 | 30.57190 | 103.95158 | 1688 ft | 2 kts | 86° |
| 2026-05-04 07:41 | 30.57188 | 103.95140 | 1688 ft | 2 kts | 72° |
| 2026-05-04 07:41 | 30.57182 | 103.95125 | 1688 ft | 2 kts | 57° |
| 2026-05-04 07:41 | 30.57175 | 103.95115 | 1688 ft | 2 kts | 46° |
| 2026-05-04 07:42 | 30.57164 | 103.95104 | 1688 ft | 2 kts | 33° |
| 2026-05-04 07:42 | 30.57151 | 103.95097 | 1688 ft | 0 kts | 20° |
| 2026-05-04 07:43 | 30.57152 | 103.95097 | 1688 ft | 0 kts | 19° |
| 2026-05-04 07:43 | 30.57158 | 103.95100 | 1688 ft | 1 kts | 17° |
| 2026-05-04 07:44 | 30.57183 | 103.95095 | 1688 ft | 8 kts | 327° |
| 2026-05-04 07:44 | 30.57217 | 103.95014 | 1688 ft | 12 kts | 292° |
| 2026-05-04 07:44 | 30.57250 | 103.94918 | 1688 ft | 13 kts | 291° |
| 2026-05-04 07:44 | 30.57286 | 103.94817 | 1688 ft | 14 kts | 292° |
| 2026-05-04 07:45 | 30.57321 | 103.94704 | 1688 ft | 15 kts | 301° |
| 2026-05-04 07:45 | 30.57404 | 103.94705 | 1687 ft | 13 kts | 23° |
| 2026-05-04 07:45 | 30.57492 | 103.94746 | 1688 ft | 14 kts | 22° |
| 2026-05-04 07:45 | 30.57583 | 103.94789 | 1688 ft | 14 kts | 22° |
| 2026-05-04 07:46 | 30.57692 | 103.94840 | 1688 ft | 20 kts | 23° |
| 2026-05-04 07:46 | 30.57830 | 103.94905 | 1688 ft | 21 kts | 23° |
| 2026-05-04 07:46 | 30.57974 | 103.94971 | 1688 ft | 22 kts | 22° |
| 2026-05-04 07:46 | 30.58121 | 103.95038 | 1688 ft | 22 kts | 24° |
| 2026-05-04 07:47 | 30.58268 | 103.95108 | 1688 ft | 23 kts | 24° |
| 2026-05-04 07:47 | 30.58419 | 103.95175 | 1688 ft | 23 kts | 24° |
| 2026-05-04 07:47 | 30.58569 | 103.95248 | 1688 ft | 23 kts | 23° |
| 2026-05-04 07:49 | 30.59269 | 103.95361 | 1688 ft | 26 kts | 202° |
| 2026-05-04 07:49 | 30.58884 | 103.95180 | 1688 ft | 88 kts | 201° |
| 2026-05-04 07:49 | 30.58150 | 103.94841 | 1688 ft | 138 kts | 200° |
| 2026-05-04 07:50 | 30.57178 | 103.94389 | 1916 ft | 152 kts | 199° |
| 2026-05-04 07:50 | 30.56181 | 103.93919 | 2389 ft | 156 kts | 199° |
| 2026-05-04 07:50 | 30.55165 | 103.93455 | 2828 ft | 163 kts | 200° |
| 2026-05-04 07:50 | 30.54098 | 103.92939 | 3324 ft | 173 kts | 201° |
| 2026-05-04 07:51 | 30.52945 | 103.92374 | 3788 ft | 186 kts | 200° |
| 2026-05-04 07:51 | 30.51673 | 103.91798 | 4113 ft | 208 kts | 200° |
| 2026-05-04 07:51 | 30.50249 | 103.91148 | 4430 ft | 232 kts | 200° |
| 2026-05-04 07:51 | 30.48704 | 103.90435 | 5000 ft | 245 kts | 201° |
| 2026-05-04 07:52 | 30.47048 | 103.89670 | 5433 ft | 264 kts | 201° |
| 2026-05-04 07:52 | 30.45306 | 103.88862 | 6040 ft | 274 kts | 201° |
| 2026-05-04 07:52 | 30.43524 | 103.88036 | 6799 ft | 278 kts | 201° |
| 2026-05-04 07:52 | 30.41744 | 103.87211 | 7594 ft | 279 kts | 201° |
| 2026-05-04 07:53 | 30.39941 | 103.86375 | 8381 ft | 279 kts | 202° |
| 2026-05-04 07:54 | 30.26441 | 103.80128 | 12313 ft | 328 kts | 203° |
| 2026-05-04 07:55 | 30.24282 | 103.79180 | 12830 ft | 335 kts | 195° |
| 2026-05-04 07:55 | 30.21946 | 103.79118 | 13342 ft | 343 kts | 167° |
| 2026-05-04 07:55 | 30.19743 | 103.80160 | 13921 ft | 347 kts | 154° |
| 2026-05-04 07:55 | 30.17562 | 103.81431 | 14506 ft | 350 kts | 154° |
| 2026-05-04 07:56 | 30.15406 | 103.82683 | 14903 ft | 339 kts | 154° |
| 2026-05-04 07:56 | 30.13252 | 103.83931 | 14976 ft | 358 kts | 154° |
| 2026-05-04 07:56 | 30.10986 | 103.85244 | 15385 ft | 366 kts | 154° |
| 2026-05-04 07:56 | 30.08714 | 103.86559 | 15960 ft | 369 kts | 155° |
| 2026-05-04 07:57 | 30.06422 | 103.87891 | 16554 ft | 371 kts | 155° |
| 2026-05-04 07:57 | 30.04098 | 103.89248 | 17135 ft | 373 kts | 155° |
| 2026-05-04 07:57 | 30.01775 | 103.90603 | 17641 ft | 378 kts | 155° |
| 2026-05-04 07:57 | 29.99414 | 103.91981 | 18087 ft | 383 kts | 155° |
| 2026-05-04 07:58 | 29.97092 | 103.93334 | 18561 ft | 387 kts | 155° |
| 2026-05-04 07:58 | 29.94661 | 103.94751 | 19050 ft | 391 kts | 155° |
| 2026-05-04 07:58 | 29.92219 | 103.96173 | 19555 ft | 394 kts | 156° |
| 2026-05-04 07:58 | 29.89786 | 103.97589 | 20023 ft | 398 kts | 156° |
| 2026-05-04 07:59 | 29.87277 | 103.99049 | 20482 ft | 402 kts | 156° |
| 2026-05-04 07:59 | 29.84790 | 104.00494 | 20939 ft | 405 kts | 156° |
| 2026-05-04 07:59 | 29.82276 | 104.01955 | 21368 ft | 408 kts | 156° |
| 2026-05-04 07:59 | 29.79712 | 104.03445 | 21795 ft | 412 kts | 156° |
| 2026-05-04 08:00 | 29.77067 | 104.04553 | 22184 ft | 405 kts | 177° |
| 2026-05-04 08:00 | 29.74284 | 104.04675 | 22609 ft | 400 kts | 187° |
| 2026-05-04 08:00 | 29.71492 | 104.04591 | 23015 ft | 402 kts | 188° |
| 2026-05-04 08:02 | 29.51438 | 104.03818 | 25625 ft | 420 kts | 189° |
| 2026-05-04 08:02 | 29.48489 | 104.03703 | 25939 ft | 424 kts | 189° |
| 2026-05-04 08:02 | 29.45543 | 104.03589 | 26263 ft | 426 kts | 190° |
| 2026-05-04 08:03 | 29.42583 | 104.03474 | 26609 ft | 428 kts | 190° |
| 2026-05-04 08:03 | 29.39582 | 104.03356 | 26936 ft | 430 kts | 190° |
| 2026-05-04 08:03 | 29.36554 | 104.03361 | 27236 ft | 435 kts | 187° |
| 2026-05-04 08:03 | 29.33526 | 104.03407 | 27519 ft | 438 kts | 188° |
| 2026-05-04 08:04 | 29.30489 | 104.03451 | 27824 ft | 440 kts | 188° |
| 2026-05-04 08:04 | 29.27406 | 104.03495 | 28101 ft | 443 kts | 188° |
| 2026-05-04 08:04 | 29.24328 | 104.03539 | 28427 ft | 444 kts | 188° |
| 2026-05-04 08:04 | 29.21229 | 104.03582 | 28698 ft | 446 kts | 188° |
| 2026-05-04 08:05 | 29.18126 | 104.03625 | 28960 ft | 448 kts | 188° |
| 2026-05-04 08:05 | 29.14995 | 104.03669 | 29205 ft | 451 kts | 188° |
| 2026-05-04 08:05 | 29.11842 | 104.03713 | 29493 ft | 452 kts | 188° |
| 2026-05-04 08:05 | 29.08701 | 104.03758 | 29747 ft | 453 kts | 188° |
| 2026-05-04 08:06 | 29.05531 | 104.03803 | 29988 ft | 455 kts | 188° |
| 2026-05-04 08:06 | 29.02368 | 104.03846 | 30215 ft | 457 kts | 188° |
| 2026-05-04 08:06 | 28.99180 | 104.03892 | 30495 ft | 457 kts | 188° |
| 2026-05-04 08:06 | 28.95985 | 104.03936 | 30766 ft | 457 kts | 188° |
| 2026-05-04 08:08 | 28.73475 | 104.04251 | 32407 ft | 460 kts | 188° |
| 2026-05-04 08:08 | 28.70232 | 104.04296 | 32662 ft | 459 kts | 188° |
| 2026-05-04 08:10 | 28.47361 | 103.97237 | 34713 ft | 413 kts | 221° |
| 2026-05-04 08:11 | 28.44900 | 103.95501 | 34949 ft | 413 kts | 221° |
| 2026-05-04 08:11 | 28.40002 | 103.92047 | 35361 ft | 413 kts | 221° |
| 2026-05-04 08:11 | 28.37557 | 103.90325 | 35567 ft | 413 kts | 221° |
| 2026-05-04 08:12 | 28.35130 | 103.88616 | 35773 ft | 413 kts | 221° |
| 2026-05-04 08:12 | 28.32663 | 103.86881 | 35979 ft | 412 kts | 221° |
| 2026-05-04 08:12 | 28.30232 | 103.85171 | 36152 ft | 413 kts | 222° |
| 2026-05-04 08:12 | 28.27774 | 103.83443 | 36278 ft | 414 kts | 221° |
| 2026-05-04 08:13 | 28.25349 | 103.81740 | 36473 ft | 414 kts | 221° |
| 2026-05-04 08:13 | 28.22883 | 103.80008 | 36620 ft | 415 kts | 221° |
| 2026-05-04 08:13 | 28.20413 | 103.78275 | 36741 ft | 416 kts | 221° |
| 2026-05-04 08:13 | 28.17947 | 103.76545 | 36915 ft | 416 kts | 221° |
| 2026-05-04 08:14 | 28.15478 | 103.74815 | 37087 ft | 416 kts | 222° |
| 2026-05-04 08:14 | 28.13042 | 103.73109 | 37234 ft | 416 kts | 222° |
| 2026-05-04 08:14 | 28.10554 | 103.71367 | 37362 ft | 417 kts | 222° |
| 2026-05-04 08:16 | 27.93295 | 103.59308 | 38276 ft | 416 kts | 222° |
| 2026-05-04 08:16 | 27.88336 | 103.55851 | 38297 ft | 422 kts | 221° |
| 2026-05-04 08:17 | 27.83307 | 103.52350 | 38314 ft | 427 kts | 221° |
| 2026-05-04 08:17 | 27.78214 | 103.48808 | 38336 ft | 432 kts | 221° |
| 2026-05-04 08:19 | 27.59974 | 103.36157 | 38345 ft | 443 kts | 220° |
| 2026-05-04 08:19 | 27.57330 | 103.34328 | 38351 ft | 443 kts | 220° |
| 2026-05-04 08:20 | 27.52085 | 103.30700 | 38373 ft | 446 kts | 220° |
| 2026-05-04 08:20 | 27.46770 | 103.27030 | 38370 ft | 444 kts | 220° |
| 2026-05-04 08:21 | 27.41115 | 103.24031 | 38374 ft | 455 kts | 210° |
| 2026-05-04 08:21 | 27.35157 | 103.21397 | 38377 ft | 457 kts | 210° |
| 2026-05-04 08:22 | 27.29281 | 103.18799 | 38382 ft | 456 kts | 210° |
| 2026-05-04 08:24 | 27.05684 | 103.08375 | 38404 ft | 455 kts | 209° |
| 2026-05-04 08:24 | 26.99750 | 103.05761 | 38398 ft | 453 kts | 209° |
| 2026-05-04 08:25 | 26.93892 | 103.03183 | 38409 ft | 447 kts | 209° |
| 2026-05-04 08:25 | 26.88051 | 103.00613 | 38051 ft | 452 kts | 209° |
| 2026-05-04 08:26 | 26.85156 | 102.99342 | 37589 ft | 450 kts | 209° |
| 2026-05-04 08:27 | 26.64766 | 102.90403 | 34126 ft | 450 kts | 209° |
| 2026-05-04 08:28 | 26.61851 | 102.89128 | 33632 ft | 451 kts | 209° |
| 2026-05-04 08:28 | 26.58921 | 102.87848 | 33138 ft | 451 kts | 209° |
| 2026-05-04 08:28 | 26.55991 | 102.86568 | 32630 ft | 452 kts | 209° |
| 2026-05-04 08:28 | 26.53054 | 102.85285 | 32177 ft | 452 kts | 209° |
| 2026-05-04 08:29 | 26.50125 | 102.84006 | 31684 ft | 449 kts | 209° |
| 2026-05-04 08:29 | 26.47253 | 102.82755 | 31196 ft | 443 kts | 208° |
| 2026-05-04 08:29 | 26.44373 | 102.81499 | 30706 ft | 437 kts | 208° |
| 2026-05-04 08:31 | 26.25149 | 102.73135 | 27353 ft | 414 kts | 207° |
| 2026-05-04 08:33 | 26.05662 | 102.70843 | 24139 ft | 406 kts | 176° |
| 2026-05-04 08:33 | 26.02920 | 102.71339 | 23706 ft | 394 kts | 176° |
| 2026-05-04 08:35 | 25.85445 | 102.74909 | 20632 ft | 359 kts | 153° |
| 2026-05-04 08:35 | 25.83442 | 102.76399 | 20662 ft | 341 kts | 150° |
| 2026-05-04 08:35 | 25.81506 | 102.77897 | 20638 ft | 336 kts | 149° |
| 2026-05-04 08:35 | 25.79572 | 102.79404 | 20640 ft | 338 kts | 149° |
| 2026-05-04 08:37 | 25.76851 | 102.92873 | 19715 ft | 344 kts | 68° |
| 2026-05-04 08:37 | 25.77632 | 102.95364 | 19719 ft | 344 kts | 68° |
| 2026-05-04 08:37 | 25.78409 | 102.97842 | 19724 ft | 344 kts | 68° |
| 2026-05-04 08:38 | 25.79204 | 103.00378 | 19714 ft | 347 kts | 68° |
| 2026-05-04 08:38 | 25.79928 | 103.02927 | 19699 ft | 348 kts | 80° |
| 2026-05-04 08:38 | 25.80120 | 103.05592 | 19727 ft | 348 kts | 86° |
| 2026-05-04 08:40 | 25.77363 | 103.23700 | 19721 ft | 342 kts | 139° |
| 2026-05-04 08:40 | 25.75398 | 103.25091 | 19795 ft | 328 kts | 169° |
| 2026-05-04 08:40 | 25.73205 | 103.25514 | 19871 ft | 322 kts | 179° |
| 2026-05-04 08:41 | 25.70961 | 103.25775 | 19883 ft | 322 kts | 180° |
| 2026-05-04 08:41 | 25.68708 | 103.26037 | 19891 ft | 322 kts | 180° |
| 2026-05-04 08:41 | 25.66483 | 103.26302 | 19854 ft | 323 kts | 180° |
| 2026-05-04 08:41 | 25.64264 | 103.26556 | 19587 ft | 322 kts | 182° |
| 2026-05-04 08:42 | 25.62082 | 103.26231 | 18975 ft | 314 kts | 205° |
| 2026-05-04 08:42 | 25.60013 | 103.25420 | 18089 ft | 320 kts | 205° |
| 2026-05-04 08:42 | 25.57924 | 103.24593 | 17109 ft | 318 kts | 205° |
| 2026-05-04 08:42 | 25.55863 | 103.23779 | 16201 ft | 312 kts | 205° |
| 2026-05-04 08:43 | 25.53867 | 103.22991 | 15318 ft | 307 kts | 205° |
| 2026-05-04 08:43 | 25.51882 | 103.22252 | 14617 ft | 297 kts | 194° |
| 2026-05-04 08:43 | 25.49892 | 103.21972 | 14344 ft | 285 kts | 201° |
| 2026-05-04 08:43 | 25.48012 | 103.21272 | 13515 ft | 283 kts | 203° |
| 2026-05-04 08:44 | 25.46087 | 103.20835 | 12712 ft | 287 kts | 188° |
| 2026-05-04 08:44 | 25.44130 | 103.20841 | 12127 ft | 279 kts | 180° |
| 2026-05-04 08:46 | 25.34232 | 103.15594 | 10207 ft | 206 kts | 220° |
| 2026-05-04 08:46 | 25.33108 | 103.14616 | 9977 ft | 198 kts | 220° |
| 2026-05-04 08:46 | 25.32051 | 103.13693 | 9969 ft | 196 kts | 220° |
| 2026-05-04 08:46 | 25.30960 | 103.12729 | 9878 ft | 200 kts | 220° |
| 2026-05-04 08:47 | 25.29860 | 103.11756 | 9834 ft | 202 kts | 220° |
| 2026-05-04 08:47 | 25.28776 | 103.10797 | 9833 ft | 201 kts | 221° |
| 2026-05-04 08:47 | 25.27618 | 103.09873 | 9813 ft | 203 kts | 211° |
| 2026-05-04 08:47 | 25.26548 | 103.08947 | 9779 ft | 184 kts | 226° |
| 2026-05-04 08:48 | 25.25652 | 103.08046 | 9680 ft | 163 kts | 224° |
| 2026-05-04 08:48 | 25.24826 | 103.07270 | 9593 ft | 152 kts | 222° |
| 2026-05-04 08:48 | 25.24026 | 103.06548 | 9547 ft | 147 kts | 221° |
| 2026-05-04 08:48 | 25.23229 | 103.05843 | 9540 ft | 148 kts | 221° |
| 2026-05-04 08:49 | 25.22413 | 103.05131 | 9450 ft | 150 kts | 220° |
| 2026-05-04 08:50 | 25.17545 | 103.00929 | 8352 ft | 146 kts | 220° |
| 2026-05-04 08:50 | 25.16739 | 103.00236 | 8161 ft | 148 kts | 220° |
| 2026-05-04 08:51 | 25.15933 | 102.99542 | 7974 ft | 147 kts | 220° |
| 2026-05-04 08:51 | 25.15127 | 102.98849 | 7784 ft | 147 kts | 221° |
| 2026-05-04 08:51 | 25.14319 | 102.98151 | 7598 ft | 149 kts | 220° |
| 2026-05-04 08:51 | 25.13508 | 102.97472 | 7396 ft | 145 kts | 220° |
| 2026-05-04 08:52 | 25.12686 | 102.96790 | 7211 ft | 146 kts | 220° |
| 2026-05-04 08:52 | 25.11900 | 102.96106 | 7031 ft | 144 kts | 221° |
| 2026-05-04 08:52 | 25.11113 | 102.95420 | 6911 ft | 141 kts | 221° |
| 2026-05-04 08:52 | 25.10447 | 102.94837 | 6911 ft | 94 kts | 219° |
| 2026-05-04 08:53 | 25.10091 | 102.94529 | 6911 ft | 47 kts | 221° |
| 2026-05-04 08:54 | 25.10267 | 102.93825 | 6911 ft | 14 kts | 308° |
| 2026-05-04 08:55 | 25.10331 | 102.93739 | 6910 ft | 14 kts | 308° |
| 2026-05-04 08:55 | 25.10309 | 102.93649 | 6911 ft | 13 kts | 217° |
| 2026-05-04 08:55 | 25.10243 | 102.93590 | 6910 ft | 8 kts | 220° |
| 2026-05-04 08:55 | 25.10249 | 102.93539 | 6911 ft | 6 kts | 309° |